Time;durP1;ratioP1;P1;durP2;ratioP2;P2;SDS_P1;SDS_P2;PMS_P1;PMS_P2;Temp;Humidity;BMP_temperature;BMP_pressure;BME280_temperature;BME280_humidity;BME280_pressure;Samples;Min_cycle;Max_cycle;Signal;HPM_P1;HPM_P2
2021/11/30 00:00:23;;;;;;;12.20;9.38;;;1.80;99.90;;;;;;493967;241;27549;-71
2021/11/30 00:02:23;;;;;;;10.90;7.40;;;1.80;99.90;;;;;;493918;241;27910;-72
2021/11/30 00:04:28;;;;;;;14.18;8.63;;;1.80;99.90;;;;;;493998;241;27971;-73
2021/11/30 00:06:26;;;;;;;11.25;7.72;;;1.80;99.90;;;;;;493638;241;27453;-72
2021/11/30 00:08:32;;;;;;;9.93;8.23;;;1.80;99.90;;;;;;494021;241;27513;-72
2021/11/30 00:10:46;;;;;;;10.65;7.68;;;1.80;99.90;;;;;;493826;241;27525;-71
2021/11/30 00:12:47;;;;;;;11.02;8.30;;;1.80;99.90;;;;;;493992;241;27537;-72
2021/11/30 00:14:48;;;;;;;10.35;7.85;;;1.80;99.90;;;;;;493989;241;28004;-72
2021/11/30 00:16:50;;;;;;;8.85;6.80;;;1.80;99.90;;;;;;493957;241;27922;-72
2021/11/30 00:18:57;;;;;;;9.57;7.85;;;1.80;99.90;;;;;;494016;237;28041;-72
2021/11/30 00:20:58;;;;;;;11.60;7.30;;;1.80;99.90;;;;;;493789;241;27508;-72
2021/11/30 00:23:00;;;;;;;9.73;8.18;;;1.70;99.90;;;;;;493994;241;27466;-71
2021/11/30 00:25:01;;;;;;;11.85;8.10;;;1.70;99.90;;;;;;494000;241;27526;-75
2021/11/30 00:27:02;;;;;;;11.85;8.68;;;1.80;99.90;;;;;;493974;241;27512;-73
2021/11/30 00:29:03;;;;;;;12.30;8.18;;;1.80;99.90;;;;;;493979;239;27564;-72
2021/11/30 00:31:05;;;;;;;11.73;7.53;;;1.80;99.90;;;;;;494013;241;28016;-72
2021/11/30 00:33:06;;;;;;;13.23;7.50;;;1.80;99.90;;;;;;493999;241;28034;-72
2021/11/30 00:35:07;;;;;;;16.35;8.68;;;1.80;99.90;;;;;;493992;241;27982;-72
2021/11/30 00:37:08;;;;;;;14.23;8.23;;;1.70;99.90;;;;;;494016;241;27653;-72
2021/11/30 00:39:10;;;;;;;13.62;8.82;;;1.70;99.90;;;;;;494004;241;27456;-72
2021/11/30 00:41:11;;;;;;;12.82;8.02;;;1.70;99.90;;;;;;494004;241;27526;-72
2021/11/30 00:43:19;;;;;;;9.07;7.97;;;1.70;99.90;;;;;;493972;241;27552;-72
2021/11/30 00:45:18;;;;;;;13.30;8.50;;;1.70;99.90;;;;;;493383;241;27563;-73
2021/11/30 00:47:19;;;;;;;10.57;8.20;;;1.70;99.90;;;;;;493670;241;27521;-73
2021/11/30 00:49:18;;;;;;;12.20;8.10;;;1.70;99.90;;;;;;493816;241;27520;-73
2021/11/30 00:51:20;;;;;;;8.43;6.80;;;1.70;99.90;;;;;;494021;241;27473;-72
2021/11/30 00:53:21;;;;;;;11.38;7.95;;;1.70;99.90;;;;;;494039;241;27959;-72
2021/11/30 00:55:22;;;;;;;10.68;7.25;;;1.70;99.90;;;;;;494032;241;27895;-72
2021/11/30 00:57:24;;;;;;;8.18;7.07;;;1.70;99.90;;;;;;494006;241;27945;-72
2021/11/30 00:59:29;;;;;;;11.50;7.97;;;1.70;99.90;;;;;;494016;241;27600;-73
2021/11/30 01:01:28;;;;;;;9.55;7.78;;;1.70;99.90;;;;;;493756;241;27480;-71
2021/11/30 01:03:27;;;;;;;10.45;8.18;;;1.70;99.90;;;;;;493820;241;27497;-73
2021/11/30 01:05:29;;;;;;;8.15;6.80;;;1.70;99.90;;;;;;493948;241;27481;-71
2021/11/30 01:07:30;;;;;;;8.77;7.25;;;1.70;99.90;;;;;;494014;241;27494;-72
2021/11/30 01:09:31;;;;;;;13.73;7.90;;;1.70;99.90;;;;;;494055;241;27506;-73
2021/11/30 01:11:32;;;;;;;8.30;7.45;;;1.70;99.90;;;;;;493992;241;27478;-72
2021/11/30 01:13:34;;;;;;;9.40;7.55;;;1.70;99.90;;;;;;493987;241;27600;-73
2021/11/30 01:15:35;;;;;;;11.93;7.10;;;1.70;99.90;;;;;;493992;241;27501;-72
2021/11/30 01:17:36;;;;;;;13.98;8.00;;;1.70;99.90;;;;;;494005;241;27910;-72
2021/11/30 01:19:37;;;;;;;9.90;8.40;;;1.70;99.90;;;;;;494014;241;27984;-73
2021/11/30 01:21:39;;;;;;;7.35;6.65;;;1.70;99.90;;;;;;493967;241;27929;-72
2021/11/30 01:23:40;;;;;;;10.13;7.35;;;1.70;99.90;;;;;;494003;241;27509;-72
2021/11/30 01:25:41;;;;;;;8.93;7.22;;;1.70;99.90;;;;;;493983;241;27490;-72
2021/11/30 01:27:42;;;;;;;9.98;7.30;;;1.70;99.90;;;;;;494016;241;27613;-72
2021/11/30 01:29:44;;;;;;;9.80;7.60;;;1.70;99.90;;;;;;493992;241;27501;-73
2021/11/30 01:31:45;;;;;;;11.45;7.53;;;1.70;99.90;;;;;;494004;241;27592;-72
2021/11/30 01:33:46;;;;;;;10.98;7.78;;;1.70;99.90;;;;;;494004;241;27528;-72
2021/11/30 01:35:48;;;;;;;13.60;7.85;;;1.70;99.90;;;;;;493979;241;27533;-74
2021/11/30 01:37:49;;;;;;;12.77;7.95;;;1.70;99.90;;;;;;494013;241;27455;-72
2021/11/30 01:39:50;;;;;;;13.15;7.80;;;1.70;99.90;;;;;;493996;241;27944;-73
2021/11/30 01:41:51;;;;;;;11.12;7.60;;;1.70;99.90;;;;;;493990;241;27914;-72
2021/11/30 01:43:53;;;;;;;8.85;7.68;;;1.70;99.90;;;;;;493997;241;27960;-72
2021/11/30 01:47:07;;;;;;;10.30;7.78;;;1.70;99.90;;;;;;494047;241;27505;-73
2021/11/30 01:50:05;;;;;;;9.05;7.15;;;1.70;99.90;;;;;;493956;241;27492;-72
2021/11/30 01:52:07;;;;;;;8.82;6.90;;;1.60;99.90;;;;;;494023;241;27496;-72
2021/11/30 01:54:08;;;;;;;7.85;7.05;;;1.70;99.90;;;;;;493994;241;27650;-73
2021/11/30 01:56:09;;;;;;;10.88;7.78;;;1.70;99.90;;;;;;494005;241;27571;-72
2021/11/30 01:58:10;;;;;;;10.88;7.78;;;1.60;99.90;;;;;;494003;241;27593;-71
2021/11/30 02:00:12;;;;;;;7.72;6.68;;;1.60;99.90;;;;;;493929;241;27962;-72
2021/11/30 02:02:13;;;;;;;8.95;7.43;;;1.60;99.90;;;;;;493996;241;27992;-72
2021/11/30 02:04:14;;;;;;;10.60;7.68;;;1.60;99.90;;;;;;493971;241;27966;-73
2021/11/30 02:06:15;;;;;;;7.80;6.97;;;1.60;99.90;;;;;;493998;241;27915;-72
2021/11/30 02:08:17;;;;;;;8.95;7.45;;;1.60;99.90;;;;;;493979;241;27538;-72
2021/11/30 02:10:18;;;;;;;12.05;7.72;;;1.60;99.90;;;;;;493993;241;27532;-72
2021/11/30 02:12:20;;;;;;;11.68;7.35;;;1.60;99.90;;;;;;493998;241;27534;-72
2021/11/30 02:14:20;;;;;;;11.23;7.65;;;1.60;99.90;;;;;;493982;241;27501;-72
2021/11/30 02:16:22;;;;;;;10.25;7.55;;;1.60;99.90;;;;;;493973;241;27476;-72
2021/11/30 02:18:23;;;;;;;10.43;6.93;;;1.60;99.90;;;;;;493920;241;27505;-72
2021/11/30 02:20:24;;;;;;;10.10;8.18;;;1.60;99.90;;;;;;493971;241;27627;-73
2021/11/30 02:22:25;;;;;;;15.93;8.35;;;1.60;99.90;;;;;;493997;241;27548;-73
2021/11/30 02:24:27;;;;;;;12.25;7.70;;;1.60;99.90;;;;;;494013;241;27961;-72
2021/11/30 02:26:28;;;;;;;11.30;8.25;;;1.60;99.90;;;;;;494022;241;27928;-73
2021/11/30 02:28:29;;;;;;;13.20;8.13;;;1.60;99.90;;;;;;493974;241;27967;-73
2021/11/30 02:30:30;;;;;;;8.70;7.25;;;1.60;99.90;;;;;;493965;241;27501;-73
2021/11/30 02:32:32;;;;;;;10.77;7.43;;;1.60;99.90;;;;;;494014;241;27458;-72
2021/11/30 02:34:33;;;;;;;11.48;8.38;;;1.60;99.90;;;;;;493964;241;27510;-72
2021/11/30 02:36:48;;;;;;;10.15;7.97;;;1.60;99.90;;;;;;493998;241;27489;-72
2021/11/30 02:38:38;;;;;;;9.90;7.97;;;1.60;99.90;;;;;;493089;241;28736;-72
2021/11/30 02:40:40;;;;;;;11.02;8.40;;;1.60;99.90;;;;;;494013;241;27931;-72
2021/11/30 02:42:41;;;;;;;9.13;7.55;;;1.60;99.90;;;;;;493993;241;27534;-73
2021/11/30 02:44:43;;;;;;;9.15;7.15;;;1.60;99.90;;;;;;493990;241;27462;-72
2021/11/30 02:46:44;;;;;;;15.27;8.70;;;1.60;99.90;;;;;;493962;241;27522;-73
2021/11/30 02:48:45;;;;;;;13.07;8.80;;;1.60;99.90;;;;;;493936;241;27486;-72
2021/11/30 02:50:46;;;;;;;20.88;8.90;;;1.60;99.90;;;;;;494023;241;27464;-72
2021/11/30 02:52:47;;;;;;;11.45;8.43;;;1.60;99.90;;;;;;494015;241;27616;-73
2021/11/30 02:54:48;;;;;;;12.02;8.48;;;1.60;99.90;;;;;;494011;241;27472;-72
2021/11/30 02:56:50;;;;;;;14.10;9.02;;;1.60;99.90;;;;;;493995;241;27506;-72
2021/11/30 02:58:51;;;;;;;12.18;8.00;;;1.60;99.90;;;;;;493998;241;28067;-74
2021/11/30 03:00:52;;;;;;;13.38;8.95;;;1.60;99.90;;;;;;494009;241;28001;-72
2021/11/30 03:02:53;;;;;;;11.75;8.80;;;1.70;99.90;;;;;;494002;241;28012;-73
2021/11/30 03:04:55;;;;;;;12.90;9.00;;;1.70;99.90;;;;;;493990;241;27485;-72
2021/11/30 03:06:56;;;;;;;13.70;9.38;;;1.70;99.90;;;;;;494014;241;27491;-73
2021/11/30 03:08:57;;;;;;;12.55;9.57;;;1.70;99.90;;;;;;494022;241;27515;-73
2021/11/30 03:10:58;;;;;;;15.25;9.27;;;1.70;99.90;;;;;;494015;241;27463;-73
2021/11/30 03:13:00;;;;;;;14.65;9.02;;;1.70;99.90;;;;;;494039;241;27504;-72
2021/11/30 03:15:01;;;;;;;16.15;9.88;;;1.70;99.90;;;;;;493994;241;27475;-72
2021/11/30 03:17:02;;;;;;;16.17;9.98;;;1.70;99.90;;;;;;494012;241;27468;-72
2021/11/30 03:19:03;;;;;;;13.10;9.93;;;1.70;99.90;;;;;;494013;241;27969;-73
2021/11/30 03:21:05;;;;;;;12.32;9.50;;;1.70;99.90;;;;;;493978;241;27924;-73
2021/11/30 03:23:06;;;;;;;16.95;10.48;;;1.70;99.90;;;;;;493997;237;27964;-72
2021/11/30 03:25:07;;;;;;;15.25;10.43;;;1.70;99.90;;;;;;493970;241;27524;-72
2021/11/30 03:27:08;;;;;;;19.15;10.57;;;1.70;99.90;;;;;;494001;241;27470;-72
2021/11/30 03:29:10;;;;;;;14.38;11.25;;;1.60;99.90;;;;;;493996;241;27578;-73
2021/11/30 03:31:21;;;;;;;16.25;11.02;;;1.70;99.90;;;;;;493997;241;27470;-71
2021/11/30 03:35:32;;;;;;;16.35;9.55;;;1.60;99.90;;;;;;493950;241;27639;-73
2021/11/30 03:37:33;;;;;;;18.85;11.20;;;1.70;99.90;;;;;;493997;241;27466;-73
2021/11/30 03:39:34;;;;;;;14.38;9.98;;;1.70;99.90;;;;;;493974;239;27517;-73
2021/11/30 03:41:35;;;;;;;14.38;9.55;;;1.60;99.90;;;;;;493965;241;27546;-72
2021/11/30 03:43:37;;;;;;;15.45;10.38;;;1.60;99.90;;;;;;494010;241;27512;-72
2021/11/30 03:45:38;;;;;;;13.10;9.30;;;1.60;99.90;;;;;;493981;241;28037;-74
2021/11/30 03:47:39;;;;;;;14.57;10.68;;;1.70;99.90;;;;;;493988;241;27970;-71
2021/11/30 03:49:40;;;;;;;14.30;10.15;;;1.70;99.90;;;;;;493951;241;27607;-72
2021/11/30 03:51:42;;;;;;;18.75;11.82;;;1.70;99.90;;;;;;493981;241;27630;-72
2021/11/30 03:53:43;;;;;;;15.32;10.50;;;1.70;99.90;;;;;;494014;241;27493;-72
2021/11/30 03:55:44;;;;;;;15.32;10.77;;;1.70;99.90;;;;;;493971;241;27592;-73
2021/11/30 03:57:45;;;;;;;17.65;11.00;;;1.70;99.90;;;;;;493984;241;27479;-72
2021/11/30 03:59:47;;;;;;;17.35;10.70;;;1.70;99.90;;;;;;493968;241;27612;-73
2021/11/30 04:01:48;;;;;;;15.55;10.23;;;1.70;99.90;;;;;;494020;241;28068;-72
2021/11/30 04:03:49;;;;;;;21.95;11.12;;;1.70;99.90;;;;;;493961;241;27920;-72
2021/11/30 04:05:50;;;;;;;14.73;10.32;;;1.70;99.90;;;;;;493975;241;27517;-71
2021/11/30 04:07:52;;;;;;;14.55;10.25;;;1.70;99.90;;;;;;493962;241;27470;-72
2021/11/30 04:09:53;;;;;;;13.52;10.18;;;1.70;99.90;;;;;;494011;241;27466;-72
2021/11/30 04:11:54;;;;;;;18.92;10.02;;;1.70;99.90;;;;;;493977;241;27596;-73
2021/11/30 04:13:55;;;;;;;14.85;10.77;;;1.60;99.90;;;;;;493988;241;27475;-71
2021/11/30 04:15:57;;;;;;;14.40;9.70;;;1.60;99.90;;;;;;493971;241;27518;-72
2021/11/30 04:17:58;;;;;;;13.73;9.30;;;1.60;99.90;;;;;;493965;241;28701;-72
2021/11/30 04:19:59;;;;;;;13.38;10.13;;;1.60;99.90;;;;;;493978;241;28219;-73
2021/11/30 04:22:00;;;;;;;13.98;9.45;;;1.60;99.90;;;;;;494014;241;27501;-73
2021/11/30 04:24:02;;;;;;;12.15;9.10;;;1.60;99.90;;;;;;494000;241;27549;-71
2021/11/30 04:26:03;;;;;;;14.73;9.57;;;1.60;99.90;;;;;;494002;241;27585;-73
2021/11/30 04:28:04;;;;;;;12.35;8.77;;;1.60;99.90;;;;;;494005;241;27504;-72
2021/11/30 04:30:05;;;;;;;12.05;10.05;;;1.60;99.90;;;;;;494025;241;27489;-72
2021/11/30 04:32:07;;;;;;;15.15;10.25;;;1.50;99.90;;;;;;493969;241;27517;-72
2021/11/30 04:34:08;;;;;;;14.55;10.35;;;1.50;99.90;;;;;;494006;241;27628;-72
2021/11/30 04:36:09;;;;;;;14.70;10.38;;;1.50;99.90;;;;;;493986;241;28097;-72
2021/11/30 04:38:10;;;;;;;12.82;9.68;;;1.50;99.90;;;;;;494016;241;29199;-73
2021/11/30 04:40:12;;;;;;;15.38;10.15;;;1.50;99.90;;;;;;494004;241;27554;-73
2021/11/30 04:42:13;;;;;;;12.27;9.43;;;1.40;99.90;;;;;;494013;241;27593;-73
2021/11/30 04:44:16;;;;;;;13.40;10.00;;;1.50;99.90;;;;;;493991;241;27474;-72
2021/11/30 04:46:24;;;;;;;14.13;10.60;;;1.40;99.90;;;;;;493901;241;27628;-73
2021/11/30 04:48:20;;;;;;;13.18;10.50;;;1.40;99.90;;;;;;493610;241;27891;-73
2021/11/30 04:50:23;;;;;;;17.42;10.57;;;1.40;99.90;;;;;;494014;241;27592;-73
2021/11/30 04:52:22;;;;;;;13.13;10.85;;;1.30;99.90;;;;;;493830;241;27459;-72
2021/11/30 04:54:24;;;;;;;14.68;10.98;;;1.30;99.90;;;;;;494002;241;27506;-72
2021/11/30 04:56:25;;;;;;;14.82;9.88;;;1.30;99.90;;;;;;493997;241;27529;-72
2021/11/30 04:58:26;;;;;;;14.02;10.27;;;1.30;99.90;;;;;;494001;241;27481;-72
2021/11/30 05:00:27;;;;;;;15.60;11.40;;;1.30;99.90;;;;;;493985;241;28062;-73
2021/11/30 05:02:28;;;;;;;14.85;10.10;;;1.30;99.90;;;;;;493995;241;27931;-72
2021/11/30 05:04:30;;;;;;;15.38;10.43;;;1.30;99.90;;;;;;493980;241;29201;-73
2021/11/30 05:06:31;;;;;;;13.13;10.48;;;1.30;99.90;;;;;;493935;241;27613;-72
2021/11/30 05:08:32;;;;;;;19.40;12.25;;;1.30;99.90;;;;;;493992;241;27473;-72
2021/11/30 05:10:33;;;;;;;14.60;11.20;;;1.30;99.90;;;;;;493981;241;27505;-74
2021/11/30 05:12:35;;;;;;;13.45;10.40;;;1.30;99.90;;;;;;493968;241;27476;-72
2021/11/30 05:14:36;;;;;;;13.02;10.40;;;1.30;99.90;;;;;;493963;241;27494;-73
2021/11/30 05:16:39;;;;;;;13.80;10.65;;;1.20;99.90;;;;;;494025;241;28077;-73
2021/11/30 05:18:40;;;;;;;16.23;11.55;;;1.20;99.90;;;;;;493903;241;27984;-73
2021/11/30 05:20:40;;;;;;;18.65;11.05;;;1.20;99.90;;;;;;493873;241;27506;-75
2021/11/30 05:22:42;;;;;;;12.77;10.05;;;1.20;99.90;;;;;;494017;241;27464;-72
2021/11/30 05:24:42;;;;;;;15.13;10.77;;;1.20;99.90;;;;;;494018;241;27486;-72
2021/11/30 05:26:44;;;;;;;15.27;10.07;;;1.30;99.90;;;;;;494035;241;27600;-73
2021/11/30 05:28:45;;;;;;;12.25;9.75;;;1.30;99.90;;;;;;494014;241;27486;-72
2021/11/30 05:30:46;;;;;;;13.70;9.80;;;1.20;99.90;;;;;;493976;241;27595;-74
2021/11/30 05:32:47;;;;;;;11.90;9.95;;;1.30;99.90;;;;;;493962;241;28713;-72
2021/11/30 05:34:49;;;;;;;10.38;9.27;;;1.20;99.90;;;;;;494025;241;27911;-72
2021/11/30 05:36:50;;;;;;;12.00;8.40;;;1.20;99.90;;;;;;494001;241;27988;-73
2021/11/30 05:38:51;;;;;;;12.00;9.77;;;1.20;99.90;;;;;;493984;241;27621;-72
2021/11/30 05:40:52;;;;;;;9.52;8.35;;;1.20;99.90;;;;;;493990;241;27502;-73
2021/11/30 05:42:54;;;;;;;14.10;10.15;;;1.20;99.90;;;;;;493989;241;27509;-72
2021/11/30 05:44:55;;;;;;;10.88;8.90;;;1.20;99.90;;;;;;493999;241;27465;-74
2021/11/30 05:46:56;;;;;;;12.18;8.98;;;1.20;99.90;;;;;;494013;241;27563;-73
2021/11/30 05:48:57;;;;;;;10.35;8.48;;;1.20;99.90;;;;;;493984;241;27501;-72
2021/11/30 05:50:59;;;;;;;14.40;8.85;;;1.20;99.90;;;;;;493974;241;27536;-72
2021/11/30 05:53:00;;;;;;;11.68;8.90;;;1.30;99.90;;;;;;493993;241;28406;-73
2021/11/30 05:55:01;;;;;;;10.25;8.05;;;1.20;99.90;;;;;;493991;241;27917;-72
2021/11/30 05:57:02;;;;;;;8.35;7.45;;;1.20;99.90;;;;;;493995;241;27988;-72
2021/11/30 05:59:04;;;;;;;9.80;7.45;;;1.20;99.90;;;;;;493947;241;27514;-72
2021/11/30 06:01:21;;;;;;;10.57;7.80;;;1.20;99.90;;;;;;493981;241;27496;-72
2021/11/30 06:03:26;;;;;;;10.45;8.25;;;1.20;99.90;;;;;;492714;241;27489;-73
2021/11/30 06:05:10;;;;;;;9.63;8.02;;;1.20;99.90;;;;;;492390;241;27516;-72
2021/11/30 06:07:11;;;;;;;8.15;6.65;;;1.20;99.90;;;;;;494040;241;27478;-73
2021/11/30 06:09:13;;;;;;;9.75;7.55;;;1.20;99.90;;;;;;493994;241;27553;-74
2021/11/30 06:11:14;;;;;;;9.55;7.75;;;1.10;99.90;;;;;;493992;241;27883;-72
2021/11/30 06:13:15;;;;;;;7.80;6.80;;;1.20;99.90;;;;;;493996;241;27986;-72
2021/11/30 06:15:16;;;;;;;10.10;8.75;;;1.10;99.90;;;;;;493984;241;27972;-73
2021/11/30 06:17:18;;;;;;;9.57;8.40;;;1.10;99.90;;;;;;494028;241;27525;-73
2021/11/30 06:19:19;;;;;;;10.35;8.20;;;1.20;99.90;;;;;;493988;241;27488;-73
2021/11/30 06:21:20;;;;;;;12.27;8.25;;;1.10;99.90;;;;;;493944;237;27582;-73
2021/11/30 06:23:21;;;;;;;9.43;8.40;;;1.10;99.90;;;;;;494015;241;27560;-73
2021/11/30 06:25:23;;;;;;;9.60;7.53;;;1.10;99.90;;;;;;494017;241;27581;-75
2021/11/30 06:27:24;;;;;;;10.43;8.45;;;1.10;99.90;;;;;;493992;241;27584;-73
2021/11/30 06:29:25;;;;;;;9.15;7.93;;;1.10;99.90;;;;;;493977;241;27635;-73
2021/11/30 06:31:26;;;;;;;8.85;7.95;;;1.10;99.90;;;;;;493977;241;27475;-73
2021/11/30 06:33:28;;;;;;;11.10;8.75;;;1.10;99.90;;;;;;493988;237;27601;-73
2021/11/30 06:35:29;;;;;;;10.70;8.27;;;1.10;99.90;;;;;;493997;241;27996;-74
2021/11/30 06:37:30;;;;;;;10.98;8.80;;;1.10;99.90;;;;;;493982;241;27912;-73
2021/11/30 06:39:31;;;;;;;12.10;9.43;;;1.10;99.90;;;;;;493955;237;29086;-74
2021/11/30 06:41:33;;;;;;;12.68;8.50;;;1.10;99.90;;;;;;493999;241;27485;-73
2021/11/30 06:43:34;;;;;;;11.32;8.93;;;1.10;99.90;;;;;;494022;241;27568;-73
2021/11/30 06:45:35;;;;;;;13.10;9.55;;;1.10;99.90;;;;;;493959;241;27505;-74
2021/11/30 06:47:37;;;;;;;9.65;7.90;;;1.10;99.90;;;;;;493992;241;27486;-73
2021/11/30 06:49:38;;;;;;;9.95;8.00;;;1.10;99.90;;;;;;493957;241;27529;-73
2021/11/30 06:51:39;;;;;;;10.43;7.90;;;1.10;99.90;;;;;;493959;241;27513;-73
2021/11/30 06:53:40;;;;;;;12.40;8.73;;;1.10;99.90;;;;;;493994;241;27482;-74
2021/11/30 06:55:41;;;;;;;9.32;8.32;;;1.10;99.90;;;;;;493961;241;28008;-73
2021/11/30 06:57:43;;;;;;;10.18;8.30;;;1.20;99.90;;;;;;493947;241;28707;-73
2021/11/30 06:59:45;;;;;;;10.02;7.80;;;1.20;99.90;;;;;;493950;241;27956;-74
2021/11/30 07:01:45;;;;;;;10.27;8.10;;;1.10;99.90;;;;;;494001;241;27531;-74
2021/11/30 07:03:48;;;;;;;10.57;8.43;;;1.10;99.90;;;;;;493977;241;27463;-74
2021/11/30 07:05:53;;;;;;;8.55;7.65;;;1.10;99.90;;;;;;493824;241;27539;-73
2021/11/30 07:10:22;;;;;;;9.30;7.78;;;1.20;99.90;;;;;;493941;241;27505;-74
2021/11/30 07:12:24;;;;;;;10.90;6.85;;;1.20;99.90;;;;;;492798;241;27607;-73
2021/11/30 07:14:15;;;;;;;9.77;7.35;;;1.20;99.90;;;;;;492992;241;27577;-73
2021/11/30 07:16:15;;;;;;;7.55;6.85;;;1.20;99.90;;;;;;493869;241;27551;-74
2021/11/30 07:18:16;;;;;;;10.10;7.20;;;1.20;99.90;;;;;;493939;241;27987;-74
2021/11/30 07:20:17;;;;;;;8.35;7.25;;;1.20;99.90;;;;;;493940;241;28656;-73
2021/11/30 07:22:20;;;;;;;7.37;6.45;;;1.20;99.90;;;;;;493990;241;29169;-74
2021/11/30 07:24:20;;;;;;;7.57;6.47;;;1.10;99.90;;;;;;493869;241;29207;-74
2021/11/30 07:26:21;;;;;;;9.50;7.35;;;1.20;99.90;;;;;;493989;241;27603;-73
2021/11/30 07:28:28;;;;;;;8.00;6.70;;;1.20;99.90;;;;;;493969;241;27588;-74
2021/11/30 07:30:24;;;;;;;7.50;6.10;;;1.20;99.90;;;;;;493578;241;27481;-74
2021/11/30 07:32:25;;;;;;;8.73;7.18;;;1.20;99.90;;;;;;494019;241;27467;-74
2021/11/30 07:34:26;;;;;;;8.90;6.80;;;1.20;99.90;;;;;;493992;241;27524;-74
2021/11/30 07:36:28;;;;;;;8.95;6.97;;;1.20;99.90;;;;;;494000;241;27611;-73
2021/11/30 07:38:29;;;;;;;7.28;6.25;;;1.20;99.90;;;;;;494011;241;27605;-74
2021/11/30 07:40:30;;;;;;;6.75;5.97;;;1.20;99.90;;;;;;494018;241;27614;-74
2021/11/30 07:42:32;;;;;;;8.02;6.95;;;1.20;99.90;;;;;;494040;241;27477;-73
2021/11/30 07:44:32;;;;;;;6.60;5.90;;;1.20;99.90;;;;;;493935;241;27499;-73
2021/11/30 07:46:34;;;;;;;6.10;5.50;;;1.20;99.90;;;;;;494022;241;27911;-73
2021/11/30 07:48:35;;;;;;;5.62;5.10;;;1.20;99.90;;;;;;493958;239;27926;-74
2021/11/30 07:50:36;;;;;;;6.30;5.70;;;1.20;99.90;;;;;;494021;241;29249;-74
2021/11/30 07:52:40;;;;;;;6.90;5.75;;;1.20;99.90;;;;;;494010;241;28005;-74
2021/11/30 07:54:39;;;;;;;5.68;5.18;;;1.20;99.90;;;;;;493827;241;27595;-74
2021/11/30 07:56:40;;;;;;;6.37;5.68;;;1.20;99.90;;;;;;493942;241;27501;-74
2021/11/30 07:58:41;;;;;;;5.70;5.10;;;1.20;99.90;;;;;;494014;241;27482;-74
2021/11/30 08:00:42;;;;;;;8.13;6.07;;;1.30;99.90;;;;;;494015;237;27513;-74
2021/11/30 08:02:44;;;;;;;6.12;5.53;;;1.30;99.90;;;;;;494035;241;27467;-74
2021/11/30 08:04:46;;;;;;;6.10;5.47;;;1.20;99.90;;;;;;494023;241;27537;-75
2021/11/30 08:06:46;;;;;;;7.43;4.90;;;1.30;99.90;;;;;;493884;241;27575;-74
2021/11/30 08:08:50;;;;;;;5.75;5.03;;;1.20;99.90;;;;;;494024;241;27492;-74
2021/11/30 08:10:49;;;;;;;6.30;5.70;;;1.20;99.90;;;;;;493827;241;27558;-74
2021/11/30 08:12:50;;;;;;;5.55;4.97;;;1.30;99.90;;;;;;493998;241;27619;-76
2021/11/30 08:14:51;;;;;;;4.60;4.20;;;1.30;99.90;;;;;;493992;241;28039;-74
2021/11/30 08:16:52;;;;;;;5.20;4.70;;;1.30;99.90;;;;;;494019;241;28738;-74
2021/11/30 08:18:54;;;;;;;5.30;4.80;;;1.30;99.90;;;;;;494042;241;29110;-73
2021/11/30 08:20:55;;;;;;;5.10;4.60;;;1.30;99.90;;;;;;494024;241;27534;-74
2021/11/30 08:22:56;;;;;;;5.43;4.93;;;1.30;99.90;;;;;;494011;237;27464;-74
2021/11/30 08:24:57;;;;;;;4.82;4.40;;;1.30;99.90;;;;;;494017;241;27497;-74
2021/11/30 08:26:59;;;;;;;5.35;4.85;;;1.30;99.90;;;;;;494023;241;27525;-73
2021/11/30 08:29:00;;;;;;;5.35;4.78;;;1.30;99.90;;;;;;494018;241;27473;-74
2021/11/30 08:31:01;;;;;;;4.75;4.35;;;1.30;99.90;;;;;;494030;241;27520;-74
2021/11/30 08:33:03;;;;;;;6.78;4.30;;;1.30;99.90;;;;;;493990;241;27489;-74
2021/11/30 08:35:04;;;;;;;4.20;3.83;;;1.30;99.90;;;;;;494010;241;27684;-75
2021/11/30 08:37:05;;;;;;;5.82;4.30;;;1.30;99.90;;;;;;493995;241;27520;-74
2021/11/30 08:39:06;;;;;;;4.80;4.40;;;1.30;99.90;;;;;;494016;241;27467;-74
2021/11/30 08:41:07;;;;;;;7.40;4.18;;;1.30;99.90;;;;;;494011;241;28068;-74
2021/11/30 08:43:09;;;;;;;4.50;4.10;;;1.30;99.90;;;;;;494013;241;27988;-74
2021/11/30 08:45:10;;;;;;;5.07;4.07;;;1.30;99.90;;;;;;494017;241;27929;-74
2021/11/30 08:47:11;;;;;;;3.97;3.58;;;1.30;99.90;;;;;;494037;241;28938;-74
2021/11/30 08:49:12;;;;;;;4.30;3.90;;;1.30;99.90;;;;;;494015;241;27620;-74
2021/11/30 08:51:14;;;;;;;4.47;4.07;;;1.30;99.90;;;;;;494003;241;27592;-74
2021/11/30 08:53:16;;;;;;;4.70;3.95;;;1.30;99.90;;;;;;493996;241;27552;-74
2021/11/30 08:55:16;;;;;;;4.40;4.00;;;1.30;99.90;;;;;;493982;241;27552;-74
2021/11/30 08:57:19;;;;;;;4.32;3.92;;;1.40;99.90;;;;;;494027;241;27513;-74
2021/11/30 08:59:19;;;;;;;4.00;3.70;;;1.40;99.90;;;;;;493961;241;27573;-74
2021/11/30 09:01:20;;;;;;;3.97;3.58;;;1.30;99.90;;;;;;494019;241;27517;-75
2021/11/30 09:03:21;;;;;;;4.00;3.70;;;1.30;99.90;;;;;;493975;239;27492;-74
2021/11/30 09:05:22;;;;;;;3.70;3.40;;;1.30;99.90;;;;;;494040;241;27552;-74
2021/11/30 09:07:24;;;;;;;4.10;3.70;;;1.40;99.90;;;;;;494019;241;27509;-74
2021/11/30 09:09:25;;;;;;;4.40;4.00;;;1.40;99.90;;;;;;494015;241;27956;-75
2021/11/30 09:11:27;;;;;;;4.40;4.00;;;1.30;99.90;;;;;;493984;241;27977;-74
2021/11/30 09:13:27;;;;;;;4.55;4.12;;;1.30;99.90;;;;;;494078;241;28040;-74
2021/11/30 09:15:29;;;;;;;3.60;3.25;;;1.30;99.90;;;;;;494001;241;27947;-74
2021/11/30 09:17:30;;;;;;;4.12;3.72;;;1.40;99.90;;;;;;493979;241;27624;-74
2021/11/30 09:19:31;;;;;;;4.18;3.78;;;1.40;99.90;;;;;;493982;241;27545;-74
2021/11/30 09:21:33;;;;;;;4.18;3.78;;;1.30;99.90;;;;;;493940;241;27509;-74
2021/11/30 09:23:34;;;;;;;3.50;3.20;;;1.40;99.90;;;;;;494008;241;27478;-74
2021/11/30 09:25:35;;;;;;;3.95;3.55;;;1.40;99.90;;;;;;494035;241;27461;-74
2021/11/30 09:27:36;;;;;;;4.72;4.32;;;1.40;99.90;;;;;;494024;241;27532;-75
2021/11/30 09:29:38;;;;;;;5.28;4.50;;;1.40;99.90;;;;;;494031;241;27481;-74
2021/11/30 09:31:39;;;;;;;4.70;4.15;;;1.40;99.90;;;;;;494010;241;27496;-74
2021/11/30 09:33:40;;;;;;;4.47;4.05;;;1.40;99.90;;;;;;494005;241;27610;-74
2021/11/30 09:35:41;;;;;;;4.20;3.80;;;1.40;99.90;;;;;;493999;241;27545;-74
2021/11/30 09:37:43;;;;;;;3.78;3.47;;;1.40;99.90;;;;;;494034;241;28004;-74
2021/11/30 09:39:44;;;;;;;3.30;3.10;;;1.40;99.90;;;;;;493980;241;28716;-74
2021/11/30 09:41:45;;;;;;;3.70;3.40;;;1.40;99.90;;;;;;494014;241;27953;-74
2021/11/30 09:43:46;;;;;;;3.28;3.08;;;1.40;99.90;;;;;;494022;241;27947;-74
2021/11/30 09:45:48;;;;;;;3.40;3.10;;;1.50;99.90;;;;;;494039;241;27548;-74
2021/11/30 09:47:49;;;;;;;3.12;2.92;;;1.50;99.90;;;;;;494032;241;27599;-74
2021/11/30 09:49:50;;;;;;;4.60;4.20;;;1.50;99.90;;;;;;494015;241;27498;-74
2021/11/30 09:51:51;;;;;;;4.10;3.80;;;1.50;99.90;;;;;;494073;241;27471;-74
2021/11/30 09:53:53;;;;;;;3.80;3.50;;;1.50;99.90;;;;;;494023;241;27566;-74
2021/11/30 09:55:54;;;;;;;3.50;3.30;;;1.50;99.90;;;;;;494039;241;27476;-74
2021/11/30 09:57:55;;;;;;;4.00;3.60;;;1.50;99.90;;;;;;493904;241;27635;-73
2021/11/30 09:59:56;;;;;;;2.90;2.70;;;1.50;99.90;;;;;;493952;241;27876;-74
2021/11/30 10:01:58;;;;;;;2.80;2.60;;;1.40;99.90;;;;;;494037;241;27598;-74
2021/11/30 10:04:00;;;;;;;3.50;3.20;;;1.50;99.90;;;;;;493974;241;27598;-74
2021/11/30 10:06:00;;;;;;;3.03;2.83;;;1.50;99.90;;;;;;493893;241;27920;-74
2021/11/30 10:08:01;;;;;;;3.20;2.90;;;1.50;99.90;;;;;;493974;241;27981;-75
2021/11/30 10:10:03;;;;;;;3.10;2.90;;;1.50;99.90;;;;;;494021;241;28056;-74
2021/11/30 10:12:04;;;;;;;3.60;3.30;;;1.50;99.90;;;;;;494058;241;27944;-74
2021/11/30 10:14:05;;;;;;;3.22;3.03;;;1.50;99.90;;;;;;494011;241;27574;-74
2021/11/30 10:16:06;;;;;;;3.30;3.10;;;1.50;99.90;;;;;;493991;241;27477;-74
2021/11/30 10:18:08;;;;;;;2.95;2.75;;;1.50;99.90;;;;;;494024;241;27513;-74
2021/11/30 10:20:10;;;;;;;3.00;2.80;;;1.50;99.90;;;;;;494050;241;27526;-74
2021/11/30 10:22:10;;;;;;;2.72;2.53;;;1.50;99.90;;;;;;493930;241;27475;-73
2021/11/30 10:24:11;;;;;;;3.40;3.17;;;1.50;99.90;;;;;;494007;241;27534;-74
2021/11/30 10:26:13;;;;;;;3.17;2.97;;;1.50;99.90;;;;;;494029;241;27486;-74
2021/11/30 10:28:17;;;;;;;3.12;2.92;;;1.50;99.90;;;;;;494002;241;27502;-74
2021/11/30 10:30:15;;;;;;;4.05;3.60;;;1.50;99.90;;;;;;493781;241;27616;-75
2021/11/30 10:32:16;;;;;;;3.67;3.37;;;1.50;99.90;;;;;;494018;241;27950;-74
2021/11/30 10:34:18;;;;;;;3.70;3.40;;;1.50;99.90;;;;;;493984;241;27966;-74
2021/11/30 10:36:19;;;;;;;4.05;3.70;;;1.50;99.90;;;;;;493967;241;27975;-74
2021/11/30 10:38:22;;;;;;;3.42;3.12;;;1.50;99.90;;;;;;493982;241;28003;-74
2021/11/30 10:40:26;;;;;;;3.53;3.20;;;1.50;99.90;;;;;;493870;241;28053;-74